sensor_id;sensor_type;location;lat;lon;timestamp;P1;durP1;ratioP1;P2;durP2;ratioP2
25922;SDS011;13725;51.170;4.442;2024-03-02T00:02:19;0.80;;;0.80;;
25922;SDS011;13725;51.170;4.442;2024-03-02T00:04:45;2.13;;;0.68;;
25922;SDS011;13725;51.170;4.442;2024-03-02T00:07:10;2.30;;;0.70;;
25922;SDS011;13725;51.170;4.442;2024-03-02T00:09:39;0.85;;;0.60;;
25922;SDS011;13725;51.170;4.442;2024-03-02T00:12:05;1.05;;;0.50;;
25922;SDS011;13725;51.170;4.442;2024-03-02T00:14:32;1.52;;;0.65;;
25922;SDS011;13725;51.170;4.442;2024-03-02T00:16:58;4.53;;;0.88;;
25922;SDS011;13725;51.170;4.442;2024-03-02T00:19:24;1.02;;;0.70;;
25922;SDS011;13725;51.170;4.442;2024-03-02T00:21:50;2.55;;;0.80;;
25922;SDS011;13725;51.170;4.442;2024-03-02T00:24:32;1.20;;;0.77;;
25922;SDS011;13725;51.170;4.442;2024-03-02T00:26:59;4.25;;;0.70;;
25922;SDS011;13725;51.170;4.442;2024-03-02T00:29:25;1.25;;;0.68;;
25922;SDS011;13725;51.170;4.442;2024-03-02T00:31:52;1.48;;;0.77;;
25922;SDS011;13725;51.170;4.442;2024-03-02T00:34:18;2.05;;;0.65;;
25922;SDS011;13725;51.170;4.442;2024-03-02T00:36:44;0.68;;;0.63;;
25922;SDS011;13725;51.170;4.442;2024-03-02T00:39:11;1.13;;;0.60;;
25922;SDS011;13725;51.170;4.442;2024-03-02T00:41:40;1.63;;;0.85;;
25922;SDS011;13725;51.170;4.442;2024-03-02T00:44:13;1.83;;;0.68;;
25922;SDS011;13725;51.170;4.442;2024-03-02T00:46:40;0.57;;;0.57;;
25922;SDS011;13725;51.170;4.442;2024-03-02T00:49:23;1.77;;;0.70;;
25922;SDS011;13725;51.170;4.442;2024-03-02T00:51:50;0.82;;;0.50;;
25922;SDS011;13725;51.170;4.442;2024-03-02T00:54:20;2.15;;;1.33;;
25922;SDS011;13725;51.170;4.442;2024-03-02T00:56:47;3.58;;;0.55;;
25922;SDS011;13725;51.170;4.442;2024-03-02T00:59:13;1.27;;;0.70;;
25922;SDS011;13725;51.170;4.442;2024-03-02T01:01:39;0.60;;;0.60;;
25922;SDS011;13725;51.170;4.442;2024-03-02T01:04:05;1.77;;;0.63;;
25922;SDS011;13725;51.170;4.442;2024-03-02T01:06:30;0.68;;;0.68;;
25922;SDS011;13725;51.170;4.442;2024-03-02T01:08:56;0.68;;;0.60;;
25922;SDS011;13725;51.170;4.442;2024-03-02T01:11:22;1.02;;;0.52;;
25922;SDS011;13725;51.170;4.442;2024-03-02T01:13:48;1.73;;;0.60;;
25922;SDS011;13725;51.170;4.442;2024-03-02T01:16:13;3.03;;;1.00;;
25922;SDS011;13725;51.170;4.442;2024-03-02T01:18:40;3.25;;;0.70;;
25922;SDS011;13725;51.170;4.442;2024-03-02T01:21:06;2.05;;;0.40;;
25922;SDS011;13725;51.170;4.442;2024-03-02T01:23:32;2.63;;;0.70;;
25922;SDS011;13725;51.170;4.442;2024-03-02T01:25:58;2.65;;;0.55;;
25922;SDS011;13725;51.170;4.442;2024-03-02T01:28:24;0.63;;;0.50;;
25922;SDS011;13725;51.170;4.442;2024-03-02T01:30:49;0.65;;;0.30;;
25922;SDS011;13725;51.170;4.442;2024-03-02T01:33:16;3.35;;;0.77;;
25922;SDS011;13725;51.170;4.442;2024-03-02T01:35:42;0.47;;;0.40;;
25922;SDS011;13725;51.170;4.442;2024-03-02T01:38:08;0.85;;;0.40;;
25922;SDS011;13725;51.170;4.442;2024-03-02T01:40:35;1.15;;;0.52;;
25922;SDS011;13725;51.170;4.442;2024-03-02T01:43:01;0.88;;;0.50;;
25922;SDS011;13725;51.170;4.442;2024-03-02T01:45:27;2.67;;;0.70;;
25922;SDS011;13725;51.170;4.442;2024-03-02T01:47:53;1.67;;;0.40;;
25922;SDS011;13725;51.170;4.442;2024-03-02T01:50:26;0.57;;;0.38;;
25922;SDS011;13725;51.170;4.442;2024-03-02T01:52:52;2.50;;;0.50;;
25922;SDS011;13725;51.170;4.442;2024-03-02T01:55:18;2.72;;;0.55;;
25922;SDS011;13725;51.170;4.442;2024-03-02T01:57:44;2.92;;;0.30;;
25922;SDS011;13725;51.170;4.442;2024-03-02T02:00:10;0.38;;;0.38;;
25922;SDS011;13725;51.170;4.442;2024-03-02T02:02:37;2.30;;;0.60;;
25922;SDS011;13725;51.170;4.442;2024-03-02T02:05:03;1.77;;;0.52;;
25922;SDS011;13725;51.170;4.442;2024-03-02T02:07:29;1.05;;;0.60;;
25922;SDS011;13725;51.170;4.442;2024-03-02T02:09:55;1.00;;;0.40;;
25922;SDS011;13725;51.170;4.442;2024-03-02T02:12:20;2.97;;;0.50;;
25922;SDS011;13725;51.170;4.442;2024-03-02T02:14:49;2.10;;;0.80;;
25922;SDS011;13725;51.170;4.442;2024-03-02T02:17:15;1.52;;;0.68;;
25922;SDS011;13725;51.170;4.442;2024-03-02T02:19:42;2.50;;;0.60;;
25922;SDS011;13725;51.170;4.442;2024-03-02T02:22:08;0.95;;;0.60;;
25922;SDS011;13725;51.170;4.442;2024-03-02T02:24:34;2.50;;;0.28;;
25922;SDS011;13725;51.170;4.442;2024-03-02T02:27:00;2.03;;;0.45;;
25922;SDS011;13725;51.170;4.442;2024-03-02T02:29:26;2.28;;;0.60;;
25922;SDS011;13725;51.170;4.442;2024-03-02T02:31:52;1.13;;;0.30;;
25922;SDS011;13725;51.170;4.442;2024-03-02T02:34:17;0.93;;;0.45;;
25922;SDS011;13725;51.170;4.442;2024-03-02T02:36:43;2.83;;;0.45;;
25922;SDS011;13725;51.170;4.442;2024-03-02T02:39:10;0.75;;;0.50;;
25922;SDS011;13725;51.170;4.442;2024-03-02T02:41:39;0.45;;;0.30;;
25922;SDS011;13725;51.170;4.442;2024-03-02T02:44:05;1.38;;;0.60;;
25922;SDS011;13725;51.170;4.442;2024-03-02T02:46:31;0.70;;;0.50;;
25922;SDS011;13725;51.170;4.442;2024-03-02T02:48:57;1.10;;;0.50;;
25922;SDS011;13725;51.170;4.442;2024-03-02T02:51:23;2.47;;;0.43;;
25922;SDS011;13725;51.170;4.442;2024-03-02T02:53:50;2.53;;;0.68;;
25922;SDS011;13725;51.170;4.442;2024-03-02T02:56:16;5.55;;;0.60;;
25922;SDS011;13725;51.170;4.442;2024-03-02T02:58:42;3.38;;;0.70;;
25922;SDS011;13725;51.170;4.442;2024-03-02T03:01:08;10.05;;;0.60;;
25922;SDS011;13725;51.170;4.442;2024-03-02T03:03:34;4.10;;;0.60;;
25922;SDS011;13725;51.170;4.442;2024-03-02T03:05:59;1.15;;;0.43;;
25922;SDS011;13725;51.170;4.442;2024-03-02T03:08:25;1.25;;;0.50;;
25922;SDS011;13725;51.170;4.442;2024-03-02T03:10:51;3.22;;;0.70;;
25922;SDS011;13725;51.170;4.442;2024-03-02T03:13:16;1.65;;;0.70;;
25922;SDS011;13725;51.170;4.442;2024-03-02T03:15:42;3.60;;;0.52;;
25922;SDS011;13725;51.170;4.442;2024-03-02T03:18:08;3.28;;;0.52;;
25922;SDS011;13725;51.170;4.442;2024-03-02T03:20:35;1.65;;;0.50;;
25922;SDS011;13725;51.170;4.442;2024-03-02T03:23:01;1.30;;;0.47;;
25922;SDS011;13725;51.170;4.442;2024-03-02T03:25:29;3.10;;;0.60;;
25922;SDS011;13725;51.170;4.442;2024-03-02T03:27:55;5.57;;;0.47;;
25922;SDS011;13725;51.170;4.442;2024-03-02T03:30:20;3.55;;;0.60;;
25922;SDS011;13725;51.170;4.442;2024-03-02T03:32:46;5.90;;;0.77;;
25922;SDS011;13725;51.170;4.442;2024-03-02T03:35:13;2.03;;;0.50;;
25922;SDS011;13725;51.170;4.442;2024-03-02T03:37:41;1.27;;;0.85;;
25922;SDS011;13725;51.170;4.442;2024-03-02T03:40:07;1.80;;;0.50;;
25922;SDS011;13725;51.170;4.442;2024-03-02T03:42:35;1.65;;;0.50;;
25922;SDS011;13725;51.170;4.442;2024-03-02T03:45:02;2.42;;;0.52;;
25922;SDS011;13725;51.170;4.442;2024-03-02T03:47:28;7.88;;;0.80;;
25922;SDS011;13725;51.170;4.442;2024-03-02T03:49:54;2.95;;;0.50;;
25922;SDS011;13725;51.170;4.442;2024-03-02T03:52:19;3.15;;;0.80;;
25922;SDS011;13725;51.170;4.442;2024-03-02T03:54:46;3.38;;;1.02;;
25922;SDS011;13725;51.170;4.442;2024-03-02T03:57:12;4.05;;;0.75;;
25922;SDS011;13725;51.170;4.442;2024-03-02T03:59:37;4.38;;;0.47;;
25922;SDS011;13725;51.170;4.442;2024-03-02T04:02:03;2.50;;;0.70;;
25922;SDS011;13725;51.170;4.442;2024-03-02T04:04:29;2.67;;;0.52;;
25922;SDS011;13725;51.170;4.442;2024-03-02T04:06:55;2.33;;;0.60;;
25922;SDS011;13725;51.170;4.442;2024-03-02T04:09:21;1.75;;;0.55;;
25922;SDS011;13725;51.170;4.442;2024-03-02T04:11:46;1.50;;;0.60;;
25922;SDS011;13725;51.170;4.442;2024-03-02T04:14:12;3.42;;;0.88;;
25922;SDS011;13725;51.170;4.442;2024-03-02T04:16:38;1.80;;;0.60;;
25922;SDS011;13725;51.170;4.442;2024-03-02T04:19:04;2.28;;;0.60;;
25922;SDS011;13725;51.170;4.442;2024-03-02T04:21:30;2.80;;;0.70;;
25922;SDS011;13725;51.170;4.442;2024-03-02T04:23:56;2.15;;;0.65;;
25922;SDS011;13725;51.170;4.442;2024-03-02T04:26:24;2.80;;;0.80;;
25922;SDS011;13725;51.170;4.442;2024-03-02T04:28:51;2.33;;;0.43;;
25922;SDS011;13725;51.170;4.442;2024-03-02T04:31:17;1.15;;;0.52;;
25922;SDS011;13725;51.170;4.442;2024-03-02T04:33:43;1.05;;;0.60;;
25922;SDS011;13725;51.170;4.442;2024-03-02T04:36:09;2.05;;;0.57;;
25922;SDS011;13725;51.170;4.442;2024-03-02T04:38:35;2.45;;;0.60;;
25922;SDS011;13725;51.170;4.442;2024-03-02T04:41:01;1.13;;;0.47;;
25922;SDS011;13725;51.170;4.442;2024-03-02T04:43:26;4.25;;;0.80;;
25922;SDS011;13725;51.170;4.442;2024-03-02T04:45:52;1.48;;;0.80;;
25922;SDS011;13725;51.170;4.442;2024-03-02T04:48:18;2.30;;;0.70;;
25922;SDS011;13725;51.170;4.442;2024-03-02T04:50:44;2.40;;;0.63;;
25922;SDS011;13725;51.170;4.442;2024-03-02T04:53:10;2.70;;;0.60;;
25922;SDS011;13725;51.170;4.442;2024-03-02T04:55:36;1.67;;;0.85;;
25922;SDS011;13725;51.170;4.442;2024-03-02T04:58:04;5.05;;;0.75;;
25922;SDS011;13725;51.170;4.442;2024-03-02T05:00:30;4.70;;;0.80;;
25922;SDS011;13725;51.170;4.442;2024-03-02T05:02:56;3.22;;;0.90;;
25922;SDS011;13725;51.170;4.442;2024-03-02T05:05:21;2.38;;;0.55;;
25922;SDS011;13725;51.170;4.442;2024-03-02T05:07:47;1.73;;;0.60;;
25922;SDS011;13725;51.170;4.442;2024-03-02T05:10:13;4.80;;;0.70;;
25922;SDS011;13725;51.170;4.442;2024-03-02T05:12:39;5.30;;;0.73;;
25922;SDS011;13725;51.170;4.442;2024-03-02T05:15:08;3.75;;;0.93;;
25922;SDS011;13725;51.170;4.442;2024-03-02T05:17:38;5.43;;;0.60;;
25922;SDS011;13725;51.170;4.442;2024-03-02T05:20:05;8.25;;;1.08;;
25922;SDS011;13725;51.170;4.442;2024-03-02T05:22:36;3.72;;;0.68;;
25922;SDS011;13725;51.170;4.442;2024-03-02T05:25:02;1.48;;;0.55;;
25922;SDS011;13725;51.170;4.442;2024-03-02T05:27:29;4.32;;;0.90;;
25922;SDS011;13725;51.170;4.442;2024-03-02T05:29:55;0.90;;;0.47;;
25922;SDS011;13725;51.170;4.442;2024-03-02T05:32:21;0.70;;;0.70;;
25922;SDS011;13725;51.170;4.442;2024-03-02T05:34:46;1.58;;;0.75;;
25922;SDS011;13725;51.170;4.442;2024-03-02T05:37:12;3.45;;;0.60;;
25922;SDS011;13725;51.170;4.442;2024-03-02T05:39:38;1.85;;;0.77;;
25922;SDS011;13725;51.170;4.442;2024-03-02T05:42:03;3.22;;;1.02;;
25922;SDS011;13725;51.170;4.442;2024-03-02T05:44:29;1.85;;;1.00;;
25922;SDS011;13725;51.170;4.442;2024-03-02T05:46:55;2.15;;;0.82;;
25922;SDS011;13725;51.170;4.442;2024-03-02T05:49:21;8.45;;;1.02;;
25922;SDS011;13725;51.170;4.442;2024-03-02T05:51:47;3.65;;;0.93;;
25922;SDS011;13725;51.170;4.442;2024-03-02T05:54:13;3.70;;;0.90;;
25922;SDS011;13725;51.170;4.442;2024-03-02T05:56:39;9.10;;;1.05;;
25922;SDS011;13725;51.170;4.442;2024-03-02T05:59:04;3.53;;;1.20;;
25922;SDS011;13725;51.170;4.442;2024-03-02T06:01:44;3.58;;;0.90;;
25922;SDS011;13725;51.170;4.442;2024-03-02T06:04:17;2.08;;;1.20;;
25922;SDS011;13725;51.170;4.442;2024-03-02T06:06:43;4.15;;;1.10;;
25922;SDS011;13725;51.170;4.442;2024-03-02T06:09:09;9.30;;;1.42;;
25922;SDS011;13725;51.170;4.442;2024-03-02T06:11:38;3.33;;;1.42;;
25922;SDS011;13725;51.170;4.442;2024-03-02T06:14:05;5.30;;;1.58;;
25922;SDS011;13725;51.170;4.442;2024-03-02T06:16:32;7.30;;;1.40;;
25922;SDS011;13725;51.170;4.442;2024-03-02T06:18:58;3.33;;;1.23;;
25922;SDS011;13725;51.170;4.442;2024-03-02T06:21:24;5.93;;;1.50;;
25922;SDS011;13725;51.170;4.442;2024-03-02T06:23:50;5.07;;;1.30;;
25922;SDS011;13725;51.170;4.442;2024-03-02T06:26:16;4.85;;;1.55;;
25922;SDS011;13725;51.170;4.442;2024-03-02T06:28:42;5.85;;;1.35;;
25922;SDS011;13725;51.170;4.442;2024-03-02T06:31:08;4.60;;;1.40;;
25922;SDS011;13725;51.170;4.442;2024-03-02T06:33:34;6.40;;;1.17;;
25922;SDS011;13725;51.170;4.442;2024-03-02T06:36:00;3.40;;;0.70;;
25922;SDS011;13725;51.170;4.442;2024-03-02T06:38:26;2.22;;;0.73;;
25922;SDS011;13725;51.170;4.442;2024-03-02T06:40:51;1.98;;;0.77;;
25922;SDS011;13725;51.170;4.442;2024-03-02T06:43:17;2.05;;;0.70;;
25922;SDS011;13725;51.170;4.442;2024-03-02T06:45:43;2.10;;;0.73;;
25922;SDS011;13725;51.170;4.442;2024-03-02T06:48:09;4.22;;;1.20;;
25922;SDS011;13725;51.170;4.442;2024-03-02T06:50:34;1.63;;;0.80;;
25922;SDS011;13725;51.170;4.442;2024-03-02T06:53:01;4.97;;;1.17;;
25922;SDS011;13725;51.170;4.442;2024-03-02T06:55:29;4.82;;;0.85;;
25922;SDS011;13725;51.170;4.442;2024-03-02T06:57:55;2.10;;;0.75;;
25922;SDS011;13725;51.170;4.442;2024-03-02T07:00:20;8.93;;;1.13;;
25922;SDS011;13725;51.170;4.442;2024-03-02T07:02:46;4.65;;;0.70;;
25922;SDS011;13725;51.170;4.442;2024-03-02T07:05:12;4.03;;;1.10;;
25922;SDS011;13725;51.170;4.442;2024-03-02T07:07:38;7.78;;;0.90;;
25922;SDS011;13725;51.170;4.442;2024-03-02T07:10:04;3.38;;;0.77;;
25922;SDS011;13725;51.170;4.442;2024-03-02T07:12:30;5.03;;;0.90;;
25922;SDS011;13725;51.170;4.442;2024-03-02T07:14:56;2.97;;;0.73;;
25922;SDS011;13725;51.170;4.442;2024-03-02T07:17:28;5.07;;;0.60;;
25922;SDS011;13725;51.170;4.442;2024-03-02T07:19:54;5.45;;;0.90;;
25922;SDS011;13725;51.170;4.442;2024-03-02T07:22:20;5.38;;;0.82;;
25922;SDS011;13725;51.170;4.442;2024-03-02T07:24:45;6.72;;;1.23;;
25922;SDS011;13725;51.170;4.442;2024-03-02T07:27:11;2.38;;;1.10;;
25922;SDS011;13725;51.170;4.442;2024-03-02T07:29:38;3.45;;;0.63;;
25922;SDS011;13725;51.170;4.442;2024-03-02T07:32:05;5.65;;;1.00;;
25922;SDS011;13725;51.170;4.442;2024-03-02T07:34:31;5.35;;;1.10;;
25922;SDS011;13725;51.170;4.442;2024-03-02T07:36:57;6.22;;;1.08;;
25922;SDS011;13725;51.170;4.442;2024-03-02T07:39:24;5.88;;;1.00;;
25922;SDS011;13725;51.170;4.442;2024-03-02T07:41:50;2.38;;;0.73;;
25922;SDS011;13725;51.170;4.442;2024-03-02T07:44:15;4.38;;;1.00;;
25922;SDS011;13725;51.170;4.442;2024-03-02T07:46:44;5.50;;;1.25;;
25922;SDS011;13725;51.170;4.442;2024-03-02T07:49:12;3.95;;;0.57;;
25922;SDS011;13725;51.170;4.442;2024-03-02T07:51:41;6.22;;;1.00;;
25922;SDS011;13725;51.170;4.442;2024-03-02T07:54:07;2.25;;;0.80;;
25922;SDS011;13725;51.170;4.442;2024-03-02T07:56:33;2.78;;;1.02;;
25922;SDS011;13725;51.170;4.442;2024-03-02T07:58:59;5.70;;;0.90;;
25922;SDS011;13725;51.170;4.442;2024-03-02T08:01:27;8.57;;;1.00;;
25922;SDS011;13725;51.170;4.442;2024-03-02T08:03:57;4.78;;;0.95;;
25922;SDS011;13725;51.170;4.442;2024-03-02T08:06:24;4.50;;;1.00;;
25922;SDS011;13725;51.170;4.442;2024-03-02T08:08:53;4.65;;;1.08;;
25922;SDS011;13725;51.170;4.442;2024-03-02T08:11:21;5.28;;;1.10;;
25922;SDS011;13725;51.170;4.442;2024-03-02T08:13:48;6.57;;;1.25;;
25922;SDS011;13725;51.170;4.442;2024-03-02T08:16:14;7.13;;;1.75;;
25922;SDS011;13725;51.170;4.442;2024-03-02T08:18:41;1.65;;;0.80;;
25922;SDS011;13725;51.170;4.442;2024-03-02T08:21:07;5.95;;;0.90;;
25922;SDS011;13725;51.170;4.442;2024-03-02T08:23:33;9.75;;;0.95;;
25922;SDS011;13725;51.170;4.442;2024-03-02T08:26:00;6.40;;;1.00;;
25922;SDS011;13725;51.170;4.442;2024-03-02T08:28:25;9.50;;;1.08;;
25922;SDS011;13725;51.170;4.442;2024-03-02T08:30:51;6.40;;;1.00;;
25922;SDS011;13725;51.170;4.442;2024-03-02T08:33:17;3.35;;;1.20;;
25922;SDS011;13725;51.170;4.442;2024-03-02T08:35:43;5.35;;;1.70;;
25922;SDS011;13725;51.170;4.442;2024-03-02T08:38:09;3.63;;;0.90;;
25922;SDS011;13725;51.170;4.442;2024-03-02T08:40:35;3.33;;;1.00;;
25922;SDS011;13725;51.170;4.442;2024-03-02T08:43:00;5.60;;;1.13;;
25922;SDS011;13725;51.170;4.442;2024-03-02T08:45:26;5.50;;;1.00;;
25922;SDS011;13725;51.170;4.442;2024-03-02T08:47:52;6.35;;;1.08;;
25922;SDS011;13725;51.170;4.442;2024-03-02T08:50:18;3.55;;;0.90;;
25922;SDS011;13725;51.170;4.442;2024-03-02T08:52:43;5.13;;;0.90;;
25922;SDS011;13725;51.170;4.442;2024-03-02T08:55:09;5.05;;;1.13;;
25922;SDS011;13725;51.170;4.442;2024-03-02T08:57:36;4.07;;;1.20;;
25922;SDS011;13725;51.170;4.442;2024-03-02T09:00:02;4.38;;;0.90;;
25922;SDS011;13725;51.170;4.442;2024-03-02T09:02:30;5.55;;;1.27;;
25922;SDS011;13725;51.170;4.442;2024-03-02T09:04:56;4.10;;;0.90;;
25922;SDS011;13725;51.170;4.442;2024-03-02T09:07:22;6.20;;;1.48;;
25922;SDS011;13725;51.170;4.442;2024-03-02T09:09:48;4.15;;;0.93;;
25922;SDS011;13725;51.170;4.442;2024-03-02T09:12:14;5.20;;;0.93;;
25922;SDS011;13725;51.170;4.442;2024-03-02T09:14:40;4.97;;;0.93;;
25922;SDS011;13725;51.170;4.442;2024-03-02T09:17:06;4.40;;;1.17;;
25922;SDS011;13725;51.170;4.442;2024-03-02T09:19:33;6.43;;;1.30;;
25922;SDS011;13725;51.170;4.442;2024-03-02T09:21:59;11.65;;;1.40;;
25922;SDS011;13725;51.170;4.442;2024-03-02T09:24:24;7.45;;;1.10;;
25922;SDS011;13725;51.170;4.442;2024-03-02T09:26:50;8.82;;;1.50;;
25922;SDS011;13725;51.170;4.442;2024-03-02T09:29:16;6.65;;;1.02;;
25922;SDS011;13725;51.170;4.442;2024-03-02T09:31:42;4.55;;;0.88;;
25922;SDS011;13725;51.170;4.442;2024-03-02T09:34:08;4.07;;;0.98;;
25922;SDS011;13725;51.170;4.442;2024-03-02T09:36:34;3.53;;;1.10;;
25922;SDS011;13725;51.170;4.442;2024-03-02T09:39:00;4.00;;;1.10;;
25922;SDS011;13725;51.170;4.442;2024-03-02T09:41:25;7.82;;;1.70;;
25922;SDS011;13725;51.170;4.442;2024-03-02T09:43:51;5.47;;;1.30;;
25922;SDS011;13725;51.170;4.442;2024-03-02T09:46:17;5.57;;;1.20;;
25922;SDS011;13725;51.170;4.442;2024-03-02T09:48:45;3.35;;;0.98;;
25922;SDS011;13725;51.170;4.442;2024-03-02T09:51:11;3.35;;;0.95;;
25922;SDS011;13725;51.170;4.442;2024-03-02T09:53:38;3.35;;;1.13;;
25922;SDS011;13725;51.170;4.442;2024-03-02T09:56:04;4.53;;;1.13;;
25922;SDS011;13725;51.170;4.442;2024-03-02T09:58:30;4.03;;;1.17;;
25922;SDS011;13725;51.170;4.442;2024-03-02T10:00:56;6.00;;;1.20;;
25922;SDS011;13725;51.170;4.442;2024-03-02T10:03:25;5.28;;;1.40;;
25922;SDS011;13725;51.170;4.442;2024-03-02T10:05:54;4.05;;;1.23;;
25922;SDS011;13725;51.170;4.442;2024-03-02T10:08:19;2.55;;;0.88;;
25922;SDS011;13725;51.170;4.442;2024-03-02T10:10:45;4.22;;;1.15;;
25922;SDS011;13725;51.170;4.442;2024-03-02T10:13:12;5.22;;;1.05;;
25922;SDS011;13725;51.170;4.442;2024-03-02T10:15:43;5.90;;;1.20;;
25922;SDS011;13725;51.170;4.442;2024-03-02T10:18:12;9.60;;;1.40;;
25922;SDS011;13725;51.170;4.442;2024-03-02T10:20:39;9.32;;;1.30;;
25922;SDS011;13725;51.170;4.442;2024-03-02T10:23:15;3.90;;;1.02;;
25922;SDS011;13725;51.170;4.442;2024-03-02T10:25:41;5.07;;;1.42;;
25922;SDS011;13725;51.170;4.442;2024-03-02T10:28:08;4.57;;;1.25;;
25922;SDS011;13725;51.170;4.442;2024-03-02T10:30:34;6.18;;;1.30;;
25922;SDS011;13725;51.170;4.442;2024-03-02T10:33:03;5.75;;;1.20;;
25922;SDS011;13725;51.170;4.442;2024-03-02T10:35:31;4.72;;;1.02;;
25922;SDS011;13725;51.170;4.442;2024-03-02T10:38:00;6.80;;;1.10;;
25922;SDS011;13725;51.170;4.442;2024-03-02T10:40:28;8.15;;;1.30;;
25922;SDS011;13725;51.170;4.442;2024-03-02T10:42:55;5.03;;;1.17;;
25922;SDS011;13725;51.170;4.442;2024-03-02T10:45:21;9.85;;;1.45;;
25922;SDS011;13725;51.170;4.442;2024-03-02T10:47:49;7.03;;;1.33;;
25922;SDS011;13725;51.170;4.442;2024-03-02T10:50:15;6.88;;;1.00;;
25922;SDS011;13725;51.170;4.442;2024-03-02T10:52:41;5.07;;;0.93;;
25922;SDS011;13725;51.170;4.442;2024-03-02T10:55:08;7.40;;;1.15;;
25922;SDS011;13725;51.170;4.442;2024-03-02T10:57:51;5.80;;;1.00;;
25922;SDS011;13725;51.170;4.442;2024-03-02T11:00:23;4.50;;;1.85;;
25922;SDS011;13725;51.170;4.442;2024-03-02T11:02:59;3.85;;;1.10;;
25922;SDS011;13725;51.170;4.442;2024-03-02T11:05:36;5.03;;;0.90;;
25922;SDS011;13725;51.170;4.442;2024-03-02T11:08:07;6.20;;;1.13;;
25922;SDS011;13725;51.170;4.442;2024-03-02T11:10:38;5.30;;;1.20;;
25922;SDS011;13725;51.170;4.442;2024-03-02T11:13:32;4.30;;;1.10;;
25922;SDS011;13725;51.170;4.442;2024-03-02T11:15:59;5.90;;;1.02;;
25922;SDS011;13725;51.170;4.442;2024-03-02T11:18:31;3.00;;;0.90;;
25922;SDS011;13725;51.170;4.442;2024-03-02T11:20:58;5.43;;;1.25;;
25922;SDS011;13725;51.170;4.442;2024-03-02T11:23:34;6.32;;;1.10;;
25922;SDS011;13725;51.170;4.442;2024-03-02T11:26:16;4.80;;;1.13;;
25922;SDS011;13725;51.170;4.442;2024-03-02T11:28:46;5.63;;;1.15;;
25922;SDS011;13725;51.170;4.442;2024-03-02T11:31:12;8.95;;;1.00;;
25922;SDS011;13725;51.170;4.442;2024-03-02T11:33:37;7.00;;;1.35;;
25922;SDS011;13725;51.170;4.442;2024-03-02T11:36:04;7.28;;;1.10;;
25922;SDS011;13725;51.170;4.442;2024-03-02T11:38:32;5.68;;;1.13;;
25922;SDS011;13725;51.170;4.442;2024-03-02T11:40:59;6.47;;;1.92;;
25922;SDS011;13725;51.170;4.442;2024-03-02T11:45:59;3.65;;;0.85;;
25922;SDS011;13725;51.170;4.442;2024-03-02T11:48:26;9.80;;;1.73;;
25922;SDS011;13725;51.170;4.442;2024-03-02T11:50:52;3.10;;;0.85;;
25922;SDS011;13725;51.170;4.442;2024-03-02T11:53:19;6.25;;;0.90;;
25922;SDS011;13725;51.170;4.442;2024-03-02T11:55:45;3.15;;;1.20;;
25922;SDS011;13725;51.170;4.442;2024-03-02T11:58:12;5.10;;;0.90;;
25922;SDS011;13725;51.170;4.442;2024-03-02T12:00:38;5.72;;;1.70;;
25922;SDS011;13725;51.170;4.442;2024-03-02T12:03:05;7.63;;;1.13;;
25922;SDS011;13725;51.170;4.442;2024-03-02T12:05:32;7.03;;;1.42;;
25922;SDS011;13725;51.170;4.442;2024-03-02T12:07:58;4.97;;;1.30;;
25922;SDS011;13725;51.170;4.442;2024-03-02T12:10:25;6.55;;;1.17;;
25922;SDS011;13725;51.170;4.442;2024-03-02T12:12:55;2.95;;;0.90;;
25922;SDS011;13725;51.170;4.442;2024-03-02T12:15:31;4.00;;;1.00;;
25922;SDS011;13725;51.170;4.442;2024-03-02T12:18:01;3.65;;;1.02;;
25922;SDS011;13725;51.170;4.442;2024-03-02T12:20:28;6.05;;;1.05;;
25922;SDS011;13725;51.170;4.442;2024-03-02T12:22:57;5.13;;;0.77;;
25922;SDS011;13725;51.170;4.442;2024-03-02T12:25:24;3.90;;;1.02;;
25922;SDS011;13725;51.170;4.442;2024-03-02T12:27:50;4.30;;;1.40;;
25922;SDS011;13725;51.170;4.442;2024-03-02T12:30:18;5.68;;;1.05;;
25922;SDS011;13725;51.170;4.442;2024-03-02T12:32:45;3.28;;;0.98;;
25922;SDS011;13725;51.170;4.442;2024-03-02T12:35:11;3.85;;;0.75;;
25922;SDS011;13725;51.170;4.442;2024-03-02T12:37:47;2.92;;;0.90;;
25922;SDS011;13725;51.170;4.442;2024-03-02T12:40:15;5.55;;;1.20;;
25922;SDS011;13725;51.170;4.442;2024-03-02T12:42:43;4.22;;;1.00;;
25922;SDS011;13725;51.170;4.442;2024-03-02T12:45:13;2.75;;;0.80;;
25922;SDS011;13725;51.170;4.442;2024-03-02T12:47:40;4.03;;;1.17;;
25922;SDS011;13725;51.170;4.442;2024-03-02T12:50:07;4.30;;;0.98;;
25922;SDS011;13725;51.170;4.442;2024-03-02T12:52:33;4.60;;;1.00;;
25922;SDS011;13725;51.170;4.442;2024-03-02T12:55:00;4.68;;;1.10;;
25922;SDS011;13725;51.170;4.442;2024-03-02T12:57:28;6.95;;;1.23;;
25922;SDS011;13725;51.170;4.442;2024-03-02T13:00:04;3.38;;;0.93;;
25922;SDS011;13725;51.170;4.442;2024-03-02T13:02:34;3.38;;;0.90;;
25922;SDS011;13725;51.170;4.442;2024-03-02T13:05:01;6.45;;;1.08;;
25922;SDS011;13725;51.170;4.442;2024-03-02T13:07:28;5.20;;;1.00;;
25922;SDS011;13725;51.170;4.442;2024-03-02T13:09:55;6.25;;;1.63;;
25922;SDS011;13725;51.170;4.442;2024-03-02T13:12:21;7.43;;;1.20;;
25922;SDS011;13725;51.170;4.442;2024-03-02T13:14:50;7.82;;;1.45;;
25922;SDS011;13725;51.170;4.442;2024-03-02T13:17:20;4.95;;;1.00;;
25922;SDS011;13725;51.170;4.442;2024-03-02T13:19:52;4.80;;;1.10;;
25922;SDS011;13725;51.170;4.442;2024-03-02T13:22:22;7.45;;;0.88;;
25922;SDS011;13725;51.170;4.442;2024-03-02T13:24:49;7.13;;;1.10;;
25922;SDS011;13725;51.170;4.442;2024-03-02T13:27:15;9.55;;;1.85;;
25922;SDS011;13725;51.170;4.442;2024-03-02T13:29:41;6.43;;;1.35;;
25922;SDS011;13725;51.170;4.442;2024-03-02T13:32:07;8.48;;;0.98;;
25922;SDS011;13725;51.170;4.442;2024-03-02T13:34:35;6.57;;;1.25;;
25922;SDS011;13725;51.170;4.442;2024-03-02T13:37:02;3.92;;;1.00;;
25922;SDS011;13725;51.170;4.442;2024-03-02T13:39:29;6.93;;;1.13;;
25922;SDS011;13725;51.170;4.442;2024-03-02T13:41:57;3.42;;;0.95;;
25922;SDS011;13725;51.170;4.442;2024-03-02T13:44:29;3.08;;;0.80;;
25922;SDS011;13725;51.170;4.442;2024-03-02T13:46:55;7.82;;;0.88;;
25922;SDS011;13725;51.170;4.442;2024-03-02T13:49:22;5.38;;;0.95;;
25922;SDS011;13725;51.170;4.442;2024-03-02T13:51:48;5.70;;;0.98;;
25922;SDS011;13725;51.170;4.442;2024-03-02T13:54:14;4.28;;;0.93;;
25922;SDS011;13725;51.170;4.442;2024-03-02T13:56:40;4.68;;;0.98;;
25922;SDS011;13725;51.170;4.442;2024-03-02T13:59:06;2.00;;;0.70;;
25922;SDS011;13725;51.170;4.442;2024-03-02T14:01:32;5.45;;;1.17;;
25922;SDS011;13725;51.170;4.442;2024-03-02T14:03:59;4.53;;;1.17;;
25922;SDS011;13725;51.170;4.442;2024-03-02T14:06:24;5.50;;;1.10;;
25922;SDS011;13725;51.170;4.442;2024-03-02T14:08:53;5.55;;;0.98;;
25922;SDS011;13725;51.170;4.442;2024-03-02T14:11:19;4.40;;;1.17;;
25922;SDS011;13725;51.170;4.442;2024-03-02T14:13:45;4.25;;;0.73;;
25922;SDS011;13725;51.170;4.442;2024-03-02T14:16:15;1.95;;;0.90;;
25922;SDS011;13725;51.170;4.442;2024-03-02T14:18:41;4.43;;;1.00;;
25922;SDS011;13725;51.170;4.442;2024-03-02T14:21:07;5.32;;;1.45;;
25922;SDS011;13725;51.170;4.442;2024-03-02T14:23:33;3.38;;;0.90;;
25922;SDS011;13725;51.170;4.442;2024-03-02T14:25:59;4.80;;;0.90;;
25922;SDS011;13725;51.170;4.442;2024-03-02T14:28:25;2.10;;;0.50;;
25922;SDS011;13725;51.170;4.442;2024-03-02T14:30:50;2.10;;;1.35;;
25922;SDS011;13725;51.170;4.442;2024-03-02T14:33:16;2.25;;;0.90;;
25922;SDS011;13725;51.170;4.442;2024-03-02T14:35:42;4.63;;;1.08;;
25922;SDS011;13725;51.170;4.442;2024-03-02T14:38:10;5.07;;;1.33;;
25922;SDS011;13725;51.170;4.442;2024-03-02T14:40:36;4.45;;;0.70;;
25922;SDS011;13725;51.170;4.442;2024-03-02T14:43:02;2.60;;;0.80;;
25922;SDS011;13725;51.170;4.442;2024-03-02T14:45:28;3.03;;;1.00;;
25922;SDS011;13725;51.170;4.442;2024-03-02T14:47:54;1.65;;;0.82;;
25922;SDS011;13725;51.170;4.442;2024-03-02T14:50:21;5.47;;;0.88;;